Time;durP1;ratioP1;P1;durP2;ratioP2;P2;SDS_P1;SDS_P2;PMS_P1;PMS_P2;Temp;Humidity;BMP_temperature;BMP_pressure;BME280_temperature;BME280_humidity;BME280_pressure;Samples;Min_cycle;Max_cycle;Signal;HPM_P1;HPM_P2
2021/10/30 00:00:54;;;;;;;14.85;8.98;;;;;;;;;;5079682;22;20044;-90
2021/10/30 00:03:22;;;;;;;12.95;7.43;;;;;;;;;;5096995;28;20050;-91
2021/10/30 00:05:50;;;;;;;13.25;7.72;;;;;;;;;;5092899;28;20043;-90
2021/10/30 00:08:16;;;;;;;16.02;8.65;;;;;;;;;;5095628;28;20036;-91
2021/10/30 00:10:43;;;;;;;17.67;8.55;;;;;;;;;;5097018;28;20052;-91
2021/10/30 00:13:09;;;;;;;18.92;8.70;;;;;;;;;;5096394;28;20029;-91
2021/10/30 00:15:36;;;;;;;18.92;8.75;;;;;;;;;;5098893;28;20025;-92
2021/10/30 00:18:03;;;;;;;13.27;8.38;;;;;;;;;;5100172;28;20051;-91
2021/10/30 00:20:31;;;;;;;13.95;8.13;;;;;;;;;;5100266;28;20084;-91
2021/10/30 00:22:57;;;;;;;11.50;7.60;;;;;;;;;;5089696;28;20112;-91
2021/10/30 00:25:24;;;;;;;23.65;8.38;;;;;;;;;;5100505;28;20092;-90
2021/10/30 00:27:50;;;;;;;10.85;7.93;;;;;;;;;;5094976;28;20024;-91
2021/10/30 00:30:17;;;;;;;18.73;9.93;;;;;;;;;;5100192;28;20025;-91
2021/10/30 00:32:43;;;;;;;15.07;8.68;;;;;;;;;;5101032;28;20020;-91
2021/10/30 00:35:10;;;;;;;12.30;8.32;;;;;;;;;;5100900;28;20039;-91
2021/10/30 00:37:38;;;;;;;18.25;8.43;;;;;;;;;;5097706;28;20055;-91
2021/10/30 00:40:05;;;;;;;12.13;8.90;;;;;;;;;;5098230;28;20039;-90
2021/10/30 00:42:32;;;;;;;18.63;8.88;;;;;;;;;;5100185;28;20032;-90
2021/10/30 00:44:58;;;;;;;13.10;8.65;;;;;;;;;;5100566;28;20034;-91
2021/10/30 00:47:24;;;;;;;16.38;9.40;;;;;;;;;;5099368;28;20045;-90
2021/10/30 00:49:51;;;;;;;17.40;8.55;;;;;;;;;;5103983;22;20055;-73
2021/10/30 00:52:19;;;;;;;16.00;8.93;;;;;;;;;;5095825;28;20044;-73
2021/10/30 00:54:47;;;;;;;13.00;8.00;;;;;;;;;;5096244;28;20059;-73
2021/10/30 00:57:13;;;;;;;15.27;7.97;;;;;;;;;;5091538;28;20500;-73
2021/10/30 00:59:40;;;;;;;16.63;8.77;;;;;;;;;;5096283;28;20055;-73
2021/10/30 01:02:06;;;;;;;15.07;8.40;;;;;;;;;;5096403;28;20113;-74
2021/10/30 01:04:33;;;;;;;12.48;7.90;;;;;;;;;;5096110;28;20047;-74
2021/10/30 01:07:00;;;;;;;11.52;7.97;;;;;;;;;;5096353;28;20492;-74
2021/10/30 01:09:27;;;;;;;14.68;8.55;;;;;;;;;;5096319;28;20405;-74
2021/10/30 01:11:54;;;;;;;12.07;7.93;;;;;;;;;;5095969;28;20055;-74
2021/10/30 01:14:22;;;;;;;14.20;7.97;;;;;;;;;;5096305;28;20059;-74
2021/10/30 01:16:49;;;;;;;11.80;7.90;;;;;;;;;;5095850;28;20056;-74
2021/10/30 01:19:16;;;;;;;13.15;7.20;;;;;;;;;;5096115;28;20052;-74
2021/10/30 01:21:43;;;;;;;23.23;9.48;;;;;;;;;;5095804;28;20044;-74
2021/10/30 01:24:10;;;;;;;19.10;7.93;;;;;;;;;;5096102;28;20051;-74
2021/10/30 01:26:36;;;;;;;13.65;8.02;;;;;;;;;;5094794;28;20059;-74
2021/10/30 01:29:04;;;;;;;32.40;8.25;;;;;;;;;;5096010;28;20498;-75
2021/10/30 01:31:31;;;;;;;11.48;6.50;;;;;;;;;;5095554;28;20048;-74
2021/10/30 01:33:58;;;;;;;20.58;7.28;;;;;;;;;;5095848;28;20401;-74
2021/10/30 01:36:24;;;;;;;23.00;8.30;;;;;;;;;;5095795;28;20477;-74
2021/10/30 01:38:52;;;;;;;14.50;7.97;;;;;;;;;;5095784;28;20421;-74
2021/10/30 01:41:23;;;;;;;22.40;7.88;;;;;;;;;;5089174;28;20130;-74
2021/10/30 01:43:49;;;;;;;27.15;8.23;;;;;;;;;;5090941;28;20612;-74
2021/10/30 01:46:17;;;;;;;10.52;6.78;;;;;;;;;;5090842;28;20044;-74
2021/10/30 01:48:43;;;;;;;9.80;6.63;;;;;;;;;;5089900;28;20420;-74
2021/10/30 01:51:09;;;;;;;14.30;7.40;;;;;;;;;;5090970;28;20400;-74
2021/10/30 01:53:36;;;;;;;9.25;6.68;;;;;;;;;;5085769;28;20489;-74
2021/10/30 01:56:05;;;;;;;18.92;6.75;;;;;;;;;;5089380;28;20052;-74
2021/10/30 01:58:32;;;;;;;19.10;7.65;;;;;;;;;;5086631;28;20056;-74
2021/10/30 02:01:06;;;;;;;10.15;7.32;;;;;;;;;;5088672;28;20044;-74
2021/10/30 02:03:33;;;;;;;10.95;6.88;;;;;;;;;;5092764;28;20401;-74
2021/10/30 02:06:01;;;;;;;13.85;7.15;;;;;;;;;;5091608;28;20055;-74
2021/10/30 02:08:28;;;;;;;10.05;6.22;;;;;;;;;;5087169;28;20040;-74
2021/10/30 02:10:54;;;;;;;12.93;7.50;;;;;;;;;;5095457;28;20051;-74
2021/10/30 02:13:23;;;;;;;9.70;6.75;;;;;;;;;;5096351;28;20051;-74
2021/10/30 02:15:50;;;;;;;29.30;7.50;;;;;;;;;;5091649;28;20491;-74
2021/10/30 02:18:17;;;;;;;20.80;7.78;;;;;;;;;;5089869;28;20056;-74
2021/10/30 02:20:44;;;;;;;13.82;7.18;;;;;;;;;;5092008;28;20078;-74
2021/10/30 02:23:11;;;;;;;12.30;6.95;;;;;;;;;;5087998;28;20051;-74
2021/10/30 02:25:37;;;;;;;25.10;7.63;;;;;;;;;;5087789;28;20048;-74
2021/10/30 02:28:04;;;;;;;13.70;7.43;;;;;;;;;;5090895;28;20051;-74
2021/10/30 02:30:32;;;;;;;21.25;6.88;;;;;;;;;;5091671;28;20055;-74
2021/10/30 02:33:00;;;;;;;11.10;6.55;;;;;;;;;;5091398;28;20480;-74
2021/10/30 02:35:26;;;;;;;9.23;6.40;;;;;;;;;;5091340;28;20486;-74
2021/10/30 02:37:53;;;;;;;13.80;7.10;;;;;;;;;;5090165;28;20040;-74
2021/10/30 02:40:20;;;;;;;18.40;7.13;;;;;;;;;;5091710;28;20071;-74
2021/10/30 02:42:46;;;;;;;8.13;5.78;;;;;;;;;;5090956;28;20047;-74
2021/10/30 02:45:13;;;;;;;11.13;6.18;;;;;;;;;;5091361;28;20048;-74
2021/10/30 02:47:41;;;;;;;12.88;6.53;;;;;;;;;;5087963;28;20078;-74
2021/10/30 02:50:08;;;;;;;33.30;8.30;;;;;;;;;;5088788;28;20056;-74
2021/10/30 02:52:34;;;;;;;15.07;6.97;;;;;;;;;;5091042;28;20040;-74
2021/10/30 02:55:01;;;;;;;27.15;7.22;;;;;;;;;;5091403;28;20056;-74
2021/10/30 02:57:27;;;;;;;20.10;7.35;;;;;;;;;;5088010;28;20052;-74
2021/10/30 02:59:54;;;;;;;18.70;7.72;;;;;;;;;;5089893;28;20051;-74
2021/10/30 03:02:21;;;;;;;12.77;6.68;;;;;;;;;;5089391;28;20107;-74
2021/10/30 03:04:49;;;;;;;18.45;7.47;;;;;;;;;;5090666;28;20048;-74
2021/10/30 03:07:15;;;;;;;15.07;6.63;;;;;;;;;;5089362;28;20055;-74
2021/10/30 03:09:47;;;;;;;10.90;6.25;;;;;;;;;;5090457;28;20048;-74
2021/10/30 03:12:14;;;;;;;8.00;5.70;;;;;;;;;;5087614;28;20450;-74
2021/10/30 03:14:40;;;;;;;9.25;5.80;;;;;;;;;;5090812;28;20048;-74
2021/10/30 03:17:07;;;;;;;10.85;6.22;;;;;;;;;;5089079;28;20063;-75
2021/10/30 03:19:33;;;;;;;10.43;5.80;;;;;;;;;;5090588;28;20051;-74
2021/10/30 03:22:01;;;;;;;17.60;7.07;;;;;;;;;;5090715;28;20048;-74
2021/10/30 03:24:27;;;;;;;7.65;5.32;;;;;;;;;;5088936;28;20048;-74
2021/10/30 03:26:54;;;;;;;8.77;6.13;;;;;;;;;;5089932;28;20048;-74
2021/10/30 03:29:20;;;;;;;20.85;6.38;;;;;;;;;;5088011;28;20421;-74
2021/10/30 03:31:47;;;;;;;11.57;6.32;;;;;;;;;;5090111;28;20055;-74
2021/10/30 03:34:13;;;;;;;9.45;6.25;;;;;;;;;;5090344;28;20055;-74
2021/10/30 03:36:40;;;;;;;20.88;6.30;;;;;;;;;;5090490;28;20059;-74
2021/10/30 03:39:07;;;;;;;8.95;5.95;;;;;;;;;;5089621;28;20059;-75
2021/10/30 03:41:34;;;;;;;12.40;6.10;;;;;;;;;;5089940;28;20047;-74
2021/10/30 03:44:00;;;;;;;11.82;5.80;;;;;;;;;;5089872;28;20056;-74
2021/10/30 03:46:27;;;;;;;13.10;6.60;;;;;;;;;;5089866;28;20048;-74
2021/10/30 03:48:53;;;;;;;13.35;6.70;;;;;;;;;;5087719;28;20044;-74
2021/10/30 03:51:20;;;;;;;11.00;5.80;;;;;;;;;;5090387;28;20408;-74
2021/10/30 03:53:46;;;;;;;9.90;6.57;;;;;;;;;;5089481;28;20299;-74
2021/10/30 03:56:14;;;;;;;12.40;6.65;;;;;;;;;;5089467;28;20101;-74
2021/10/30 03:58:40;;;;;;;28.13;8.40;;;;;;;;;;5085990;28;20044;-74
2021/10/30 04:01:07;;;;;;;11.68;6.13;;;;;;;;;;5089383;28;20500;-74
2021/10/30 04:03:33;;;;;;;14.38;7.65;;;;;;;;;;5089575;28;20044;-74
2021/10/30 04:06:00;;;;;;;9.02;6.85;;;;;;;;;;5088441;28;20060;-74
2021/10/30 04:08:26;;;;;;;11.85;5.97;;;;;;;;;;5088691;28;20048;-74
2021/10/30 04:10:52;;;;;;;34.10;7.38;;;;;;;;;;5087803;28;20094;-74
2021/10/30 04:13:20;;;;;;;17.40;6.35;;;;;;;;;;5089617;28;20054;-74
2021/10/30 04:15:47;;;;;;;10.95;6.47;;;;;;;;;;5088429;28;20059;-74
2021/10/30 04:18:13;;;;;;;12.48;6.28;;;;;;;;;;5086679;28;20047;-74
2021/10/30 04:20:40;;;;;;;8.18;5.70;;;;;;;;;;5089928;28;20055;-74
2021/10/30 04:23:06;;;;;;;23.58;8.20;;;;;;;;;;5089486;28;20048;-74
2021/10/30 04:25:33;;;;;;;18.58;6.72;;;;;;;;;;5086924;28;20127;-74
2021/10/30 04:27:59;;;;;;;14.77;6.78;;;;;;;;;;5080516;28;20048;-74
2021/10/30 04:30:27;;;;;;;14.65;6.47;;;;;;;;;;5089878;28;20504;-74
2021/10/30 04:32:54;;;;;;;9.45;5.60;;;;;;;;;;5089984;28;20043;-74
2021/10/30 04:35:20;;;;;;;10.15;5.95;;;;;;;;;;5089541;28;20097;-74
2021/10/30 04:37:47;;;;;;;27.55;9.50;;;;;;;;;;5088007;28;20048;-74
2021/10/30 04:40:13;;;;;;;12.05;6.40;;;;;;;;;;5089325;28;20048;-74
2021/10/30 04:42:40;;;;;;;9.27;5.72;;;;;;;;;;5090042;28;20519;-73
2021/10/30 04:45:07;;;;;;;25.42;7.88;;;;;;;;;;5089230;28;20053;-73
2021/10/30 04:47:35;;;;;;;12.52;6.15;;;;;;;;;;5089115;28;20508;-73
2021/10/30 04:50:01;;;;;;;11.88;6.13;;;;;;;;;;5088634;28;20058;-73
2021/10/30 04:52:28;;;;;;;14.45;6.38;;;;;;;;;;5090103;28;20048;-73
2021/10/30 04:54:54;;;;;;;15.27;6.32;;;;;;;;;;5088635;28;20044;-73
2021/10/30 04:57:20;;;;;;;26.92;8.30;;;;;;;;;;5086629;28;20484;-73
2021/10/30 04:59:47;;;;;;;15.93;6.32;;;;;;;;;;5082731;28;20409;-73
2021/10/30 05:02:13;;;;;;;20.23;7.15;;;;;;;;;;5091381;28;20048;-73
2021/10/30 05:04:41;;;;;;;17.77;6.28;;;;;;;;;;5092822;28;20425;-74
2021/10/30 05:07:08;;;;;;;11.75;6.03;;;;;;;;;;5091386;28;20425;-74
2021/10/30 05:09:34;;;;;;;18.88;6.88;;;;;;;;;;5090486;28;20044;-74
2021/10/30 05:12:00;;;;;;;16.45;5.88;;;;;;;;;;5086454;28;20044;-74
2021/10/30 05:14:27;;;;;;;16.42;6.15;;;;;;;;;;5091638;28;20880;-74
2021/10/30 05:16:53;;;;;;;13.20;6.40;;;;;;;;;;5090270;28;20044;-74
2021/10/30 05:19:20;;;;;;;28.05;6.25;;;;;;;;;;5089566;28;20073;-74
2021/10/30 05:21:48;;;;;;;10.15;5.53;;;;;;;;;;5092245;28;20472;-74
2021/10/30 05:24:15;;;;;;;7.57;5.35;;;;;;;;;;5092925;28;20044;-74
2021/10/30 05:26:42;;;;;;;23.00;6.80;;;;;;;;;;5091785;28;20047;-74
2021/10/30 05:29:08;;;;;;;34.60;8.75;;;;;;;;;;5085368;28;20056;-73
2021/10/30 05:31:34;;;;;;;18.73;6.47;;;;;;;;;;5098238;28;20516;-73
2021/10/30 05:34:01;;;;;;;19.60;6.72;;;;;;;;;;5090041;28;20194;-74
2021/10/30 05:36:30;;;;;;;10.82;6.07;;;;;;;;;;5091667;28;20055;-73
2021/10/30 05:38:58;;;;;;;19.55;6.53;;;;;;;;;;5089250;28;20162;-74
2021/10/30 05:41:26;;;;;;;16.15;8.63;;;;;;;;;;5091283;28;20055;-74
2021/10/30 05:43:52;;;;;;;12.25;6.07;;;;;;;;;;5082107;28;20044;-74
2021/10/30 05:46:19;;;;;;;13.60;6.85;;;;;;;;;;5088811;28;20382;-74
2021/10/30 05:48:45;;;;;;;19.55;7.38;;;;;;;;;;5087951;28;20524;-74
2021/10/30 05:51:12;;;;;;;9.88;6.00;;;;;;;;;;5084087;28;20052;-74
2021/10/30 05:53:38;;;;;;;23.27;6.63;;;;;;;;;;5088549;28;20039;-74
2021/10/30 05:56:06;;;;;;;11.40;6.07;;;;;;;;;;5090500;28;20052;-74
2021/10/30 05:58:32;;;;;;;16.08;6.13;;;;;;;;;;5092661;28;20054;-74
2021/10/30 06:00:59;;;;;;;23.08;6.38;;;;;;;;;;5087727;28;20059;-74
2021/10/30 06:03:25;;;;;;;14.18;5.82;;;;;;;;;;5089814;28;20507;-74
2021/10/30 06:05:52;;;;;;;12.65;6.10;;;;;;;;;;5090898;28;20044;-73
2021/10/30 06:08:18;;;;;;;15.88;6.07;;;;;;;;;;5091946;28;20051;-73
2021/10/30 06:10:45;;;;;;;13.85;5.95;;;;;;;;;;5092162;28;20047;-73
2021/10/30 06:13:12;;;;;;;11.48;6.28;;;;;;;;;;5075846;28;20049;-74
2021/10/30 06:15:39;;;;;;;10.13;5.80;;;;;;;;;;5084485;28;20413;-74
2021/10/30 06:18:05;;;;;;;9.73;5.97;;;;;;;;;;5090341;28;20048;-74
2021/10/30 06:20:32;;;;;;;16.15;7.03;;;;;;;;;;5088171;28;20055;-74
2021/10/30 06:22:59;;;;;;;13.57;5.80;;;;;;;;;;5086727;28;20048;-74
2021/10/30 06:25:26;;;;;;;10.10;6.10;;;;;;;;;;5085237;28;20109;-74
2021/10/30 06:27:52;;;;;;;18.35;6.28;;;;;;;;;;5086932;28;20136;-74
2021/10/30 06:30:20;;;;;;;11.98;5.93;;;;;;;;;;5090577;28;20048;-75
2021/10/30 06:32:46;;;;;;;16.27;6.68;;;;;;;;;;5088816;28;20044;-73
2021/10/30 06:35:13;;;;;;;14.82;6.57;;;;;;;;;;5083987;28;20063;-74
2021/10/30 06:37:39;;;;;;;13.55;5.68;;;;;;;;;;5085965;28;20040;-74
2021/10/30 06:40:08;;;;;;;10.10;5.60;;;;;;;;;;5088926;28;20058;-74
2021/10/30 06:42:34;;;;;;;17.42;7.43;;;;;;;;;;5081469;28;20040;-74
2021/10/30 06:45:00;;;;;;;7.55;5.65;;;;;;;;;;5086073;28;20154;-74
2021/10/30 06:47:30;;;;;;;17.40;6.82;;;;;;;;;;5087999;28;20048;-74
2021/10/30 06:49:58;;;;;;;16.60;6.15;;;;;;;;;;5086649;28;20359;-74
2021/10/30 06:52:25;;;;;;;14.00;7.18;;;;;;;;;;5081306;28;20043;-74
2021/10/30 06:54:51;;;;;;;8.38;5.53;;;;;;;;;;5088873;28;20497;-74
2021/10/30 06:57:18;;;;;;;10.82;6.50;;;;;;;;;;5083224;28;20040;-73
2021/10/30 06:59:44;;;;;;;10.65;6.50;;;;;;;;;;5083233;28;20055;-74
2021/10/30 07:02:11;;;;;;;19.52;7.25;;;;;;;;;;5083227;28;20126;-74
2021/10/30 07:04:39;;;;;;;13.70;6.47;;;;;;;;;;5082385;28;20208;-74
2021/10/30 07:07:06;;;;;;;9.93;6.38;;;;;;;;;;5088225;28;20048;-73
2021/10/30 07:09:33;;;;;;;15.90;7.05;;;;;;;;;;5090307;28;20047;-73
2021/10/30 07:11:59;;;;;;;13.38;6.30;;;;;;;;;;5088713;28;20059;-74
2021/10/30 07:14:25;;;;;;;14.73;7.38;;;;;;;;;;5083847;28;20051;-74
2021/10/30 07:16:52;;;;;;;12.05;6.53;;;;;;;;;;5085793;28;20409;-74
2021/10/30 07:19:18;;;;;;;10.10;6.43;;;;;;;;;;5084803;28;20496;-74
2021/10/30 07:21:46;;;;;;;11.00;6.50;;;;;;;;;;5083088;28;20048;-73
2021/10/30 07:24:13;;;;;;;22.10;8.38;;;;;;;;;;5084799;28;20048;-72
2021/10/30 07:26:39;;;;;;;18.55;8.38;;;;;;;;;;5083811;28;20064;-72
2021/10/30 07:29:05;;;;;;;11.52;6.72;;;;;;;;;;5083273;28;20043;-72
2021/10/30 07:31:32;;;;;;;10.32;7.05;;;;;;;;;;5082741;28;20076;-74
2021/10/30 07:33:58;;;;;;;12.02;7.30;;;;;;;;;;5075560;28;20048;-72
2021/10/30 07:36:25;;;;;;;14.15;7.35;;;;;;;;;;5090033;28;20048;-72
2021/10/30 07:38:53;;;;;;;10.00;6.88;;;;;;;;;;5088791;28;20071;-72
2021/10/30 07:41:19;;;;;;;11.52;7.18;;;;;;;;;;5089634;28;20055;-72
2021/10/30 07:43:47;;;;;;;11.65;7.30;;;;;;;;;;5090172;28;20135;-72
2021/10/30 07:46:14;;;;;;;15.75;9.35;;;;;;;;;;5089949;28;20052;-72
2021/10/30 07:48:41;;;;;;;13.50;7.97;;;;;;;;;;5089916;28;20480;-72
2021/10/30 07:51:07;;;;;;;13.25;7.90;;;;;;;;;;5088422;28;20515;-74
2021/10/30 07:53:34;;;;;;;16.80;8.73;;;;;;;;;;5087832;28;20040;-73
2021/10/30 07:56:02;;;;;;;17.00;8.10;;;;;;;;;;5087709;28;20515;-74
2021/10/30 07:58:28;;;;;;;23.08;11.93;;;;;;;;;;5087758;28;20533;-74
2021/10/30 08:00:55;;;;;;;14.77;8.45;;;;;;;;;;5087004;28;20650;-74
2021/10/30 08:03:21;;;;;;;15.90;9.43;;;;;;;;;;5087969;28;20571;-74
2021/10/30 08:05:48;;;;;;;15.43;9.90;;;;;;;;;;5088396;28;20066;-74
2021/10/30 08:08:14;;;;;;;14.07;9.23;;;;;;;;;;5090436;28;20048;-74
2021/10/30 08:10:40;;;;;;;19.63;11.65;;;;;;;;;;5091031;28;20056;-74
2021/10/30 08:13:10;;;;;;;14.55;8.82;;;;;;;;;;5089911;28;20044;-74
2021/10/30 08:15:37;;;;;;;13.73;8.68;;;;;;;;;;5091495;28;20493;-74
2021/10/30 08:18:04;;;;;;;11.98;8.10;;;;;;;;;;5089275;28;20433;-74
2021/10/30 08:20:31;;;;;;;18.55;8.85;;;;;;;;;;5090766;28;20048;-72
2021/10/30 08:22:58;;;;;;;11.95;8.48;;;;;;;;;;5090994;28;20040;-74
2021/10/30 08:25:24;;;;;;;12.63;7.88;;;;;;;;;;5090801;28;20674;-73
2021/10/30 08:27:51;;;;;;;13.98;9.00;;;;;;;;;;5091068;28;20408;-73
2021/10/30 08:30:19;;;;;;;14.75;9.07;;;;;;;;;;5090382;28;20416;-73
2021/10/30 08:32:46;;;;;;;19.88;10.75;;;;;;;;;;5090105;28;20055;-74
2021/10/30 08:35:13;;;;;;;14.52;8.10;;;;;;;;;;5092051;28;20087;-74
2021/10/30 08:37:39;;;;;;;11.02;7.72;;;;;;;;;;5094276;28;20059;-72
2021/10/30 08:40:10;;;;;;;12.27;7.72;;;;;;;;;;5094578;28;20048;-73
2021/10/30 08:42:37;;;;;;;12.18;7.15;;;;;;;;;;5094541;28;20052;-72
2021/10/30 08:45:06;;;;;;;11.30;7.40;;;;;;;;;;5094625;28;20500;-74
2021/10/30 08:47:34;;;;;;;11.27;7.18;;;;;;;;;;5094154;28;20048;-71
2021/10/30 08:50:00;;;;;;;11.80;7.78;;;;;;;;;;5094150;28;20607;-72
2021/10/30 08:52:27;;;;;;;13.68;8.57;;;;;;;;;;5094404;28;20448;-71
2021/10/30 08:54:53;;;;;;;13.35;8.52;;;;;;;;;;5094026;28;20398;-71
2021/10/30 08:57:20;;;;;;;13.02;7.90;;;;;;;;;;5094258;28;20048;-71
2021/10/30 08:59:48;;;;;;;13.07;7.55;;;;;;;;;;5094353;28;20532;-73
2021/10/30 09:02:26;;;;;;;13.15;7.97;;;;;;;;;;5094306;28;20048;-74
2021/10/30 09:05:10;;;;;;;14.07;8.70;;;;;;;;;;5094190;28;20401;-71
2021/10/30 09:07:37;;;;;;;11.80;7.45;;;;;;;;;;5088036;28;20139;-74
2021/10/30 09:10:09;;;;;;;13.18;7.82;;;;;;;;;;5093890;28;20056;-74
2021/10/30 09:12:35;;;;;;;12.93;8.15;;;;;;;;;;5093962;28;20044;-73
2021/10/30 09:15:02;;;;;;;12.80;8.05;;;;;;;;;;5093798;28;20397;-72
2021/10/30 09:17:28;;;;;;;12.15;7.22;;;;;;;;;;5093635;28;20617;-73
2021/10/30 09:19:56;;;;;;;13.20;8.05;;;;;;;;;;5093484;28;20055;-73
2021/10/30 09:22:25;;;;;;;12.48;8.10;;;;;;;;;;5093743;28;20516;-72
2021/10/30 09:25:00;;;;;;;11.75;8.00;;;;;;;;;;5093749;28;20051;-72
2021/10/30 09:27:47;;;;;;;12.85;8.52;;;;;;;;;;5093476;28;20051;-73
2021/10/30 09:30:13;;;;;;;12.77;7.15;;;;;;;;;;5093300;28;20055;-73
2021/10/30 09:32:40;;;;;;;11.90;6.97;;;;;;;;;;5093665;28;20113;-74
2021/10/30 09:35:07;;;;;;;12.30;7.50;;;;;;;;;;5093168;28;20067;-72
2021/10/30 09:37:35;;;;;;;12.38;7.72;;;;;;;;;;5093251;28;20052;-73
2021/10/30 09:40:21;;;;;;;12.45;7.72;;;;;;;;;;5093342;28;20075;-73
2021/10/30 09:42:49;;;;;;;11.93;7.90;;;;;;;;;;5092929;28;20052;-73
2021/10/30 09:45:16;;;;;;;11.38;8.65;;;;;;;;;;5092672;28;20457;-73
2021/10/30 09:47:44;;;;;;;12.85;8.63;;;;;;;;;;5091864;28;20056;-72
2021/10/30 09:50:24;;;;;;;12.85;8.63;;;;;;;;;;5092952;28;20075;-73
2021/10/30 09:52:54;;;;;;;14.23;7.93;;;;;;;;;;5093309;28;20139;-73
2021/10/30 09:55:27;;;;;;;14.23;8.13;;;;;;;;;;5092809;28;20470;-74
2021/10/30 09:58:04;;;;;;;13.35;8.68;;;;;;;;;;5093104;28;20044;-74
2021/10/30 10:00:32;;;;;;;12.98;8.43;;;;;;;;;;5093045;28;20048;-73
2021/10/30 10:03:00;;;;;;;11.10;7.38;;;;;;;;;;5092959;28;20048;-73
2021/10/30 10:05:28;;;;;;;11.32;7.70;;;;;;;;;;5092740;28;20059;-73
2021/10/30 10:07:57;;;;;;;12.95;8.93;;;;;;;;;;5093004;28;20516;-73
2021/10/30 10:10:24;;;;;;;10.70;7.57;;;;;;;;;;5092571;28;20054;-73
2021/10/30 10:12:52;;;;;;;11.88;8.05;;;;;;;;;;5092650;28;20052;-73
2021/10/30 10:15:20;;;;;;;13.82;8.88;;;;;;;;;;5092852;28;20040;-74
2021/10/30 10:17:47;;;;;;;12.63;8.32;;;;;;;;;;5092874;28;20056;-73
2021/10/30 10:20:14;;;;;;;12.75;8.82;;;;;;;;;;5092612;28;20055;-73
2021/10/30 10:22:41;;;;;;;14.27;8.77;;;;;;;;;;5092703;28;20418;-73
2021/10/30 10:25:29;;;;;;;10.18;7.30;;;;;;;;;;5092594;28;20054;-73
2021/10/30 10:27:55;;;;;;;11.70;8.05;;;;;;;;;;5092252;28;20052;-73
2021/10/30 10:30:22;;;;;;;14.05;8.52;;;;;;;;;;5087386;28;20047;-74
2021/10/30 10:32:48;;;;;;;19.85;10.40;;;;;;;;;;5082605;28;20051;-73
2021/10/30 10:35:16;;;;;;;19.30;10.07;;;;;;;;;;5084849;28;20059;-73
2021/10/30 10:37:49;;;;;;;16.50;8.98;;;;;;;;;;5088316;28;20075;-73
2021/10/30 10:40:31;;;;;;;15.23;9.52;;;;;;;;;;5088405;28;20494;-73
2021/10/30 10:42:57;;;;;;;17.05;10.90;;;;;;;;;;5091495;28;20075;-73
2021/10/30 10:45:24;;;;;;;16.45;11.13;;;;;;;;;;5090455;28;20071;-73
2021/10/30 10:47:58;;;;;;;15.52;10.25;;;;;;;;;;5085682;28;20055;-74
2021/10/30 10:50:28;;;;;;;12.93;9.80;;;;;;;;;;5083693;28;20139;-73
2021/10/30 10:53:29;;;;;;;16.73;11.48;;;;;;;;;;5085645;28;20508;-72
2021/10/30 10:56:19;;;;;;;22.60;12.25;;;;;;;;;;5083109;28;20411;-73
2021/10/30 10:59:19;;;;;;;17.83;12.00;;;;;;;;;;5085607;28;20052;-73
2021/10/30 11:02:21;;;;;;;17.63;11.65;;;;;;;;;;5084151;28;20052;-73
2021/10/30 11:05:24;;;;;;;18.63;12.35;;;;;;;;;;5085914;28;20048;-73
2021/10/30 11:08:25;;;;;;;25.10;14.20;;;;;;;;;;5087912;28;20052;-74
2021/10/30 11:11:11;;;;;;;20.48;12.80;;;;;;;;;;5069963;28;20805;-73
2021/10/30 11:13:58;;;;;;;19.53;11.37;;;;;;;;;;5082739;28;20051;-74
2021/10/30 11:16:28;;;;;;;18.17;12.32;;;;;;;;;;5082658;28;20295;-74
2021/10/30 11:19:02;;;;;;;19.50;12.27;;;;;;;;;;5081922;28;20147;-73
2021/10/30 11:21:33;;;;;;;22.52;13.10;;;;;;;;;;5088843;28;20056;-74
2021/10/30 11:24:16;;;;;;;17.27;11.55;;;;;;;;;;5085240;28;20056;-73
2021/10/30 11:26:58;;;;;;;18.75;11.90;;;;;;;;;;5090499;28;20039;-75
2021/10/30 11:29:27;;;;;;;18.33;12.38;;;;;;;;;;5078788;28;20080;-74
2021/10/30 11:31:56;;;;;;;17.08;11.70;;;;;;;;;;5093360;28;20097;-73
2021/10/30 11:34:23;;;;;;;23.45;15.55;;;;;;;;;;5089124;28;20051;-74
2021/10/30 11:36:55;;;;;;;20.23;13.52;;;;;;;;;;5090318;28;20070;-73
2021/10/30 11:39:21;;;;;;;18.90;12.98;;;;;;;;;;5092799;28;20079;-74
2021/10/30 11:41:48;;;;;;;21.52;12.77;;;;;;;;;;5089889;28;20055;-74
2021/10/30 11:44:16;;;;;;;17.20;12.32;;;;;;;;;;5093027;28;20051;-74
2021/10/30 11:46:46;;;;;;;18.98;13.23;;;;;;;;;;5087578;28;20051;-73
2021/10/30 11:49:16;;;;;;;19.65;12.68;;;;;;;;;;5089989;28;20048;-74
2021/10/30 11:51:44;;;;;;;22.02;13.52;;;;;;;;;;5080390;28;20135;-73
2021/10/30 11:54:12;;;;;;;19.98;13.45;;;;;;;;;;5091652;28;20052;-74
2021/10/30 11:56:38;;;;;;;25.75;15.35;;;;;;;;;;5091108;28;20401;-74
2021/10/30 11:59:06;;;;;;;21.27;13.07;;;;;;;;;;5093279;28;20048;-74
2021/10/30 12:01:35;;;;;;;18.85;12.95;;;;;;;;;;5090294;28;20516;-74
2021/10/30 12:04:11;;;;;;;19.30;12.70;;;;;;;;;;5088615;28;20048;-74
2021/10/30 12:06:39;;;;;;;19.70;13.52;;;;;;;;;;5091828;28;20056;-74
2021/10/30 12:09:15;;;;;;;21.60;14.30;;;;;;;;;;5088359;28;20041;-74
2021/10/30 12:11:42;;;;;;;;;;;;;;;;;;5093497;28;20050;-74
2021/10/30 12:14:09;;;;;;;17.63;11.90;;;;;;;;;;5095239;28;20491;-75
2021/10/30 12:16:35;;;;;;;18.70;13.02;;;;;;;;;;5096982;28;20700;-76
2021/10/30 12:19:03;;;;;;;20.27;13.38;;;;;;;;;;5090763;28;20052;-74
2021/10/30 12:21:33;;;;;;;21.02;13.15;;;;;;;;;;5095176;28;20048;-74
2021/10/30 12:24:02;;;;;;;18.83;12.80;;;;;;;;;;5094888;28;20040;-75
2021/10/30 12:26:30;;;;;;;16.13;11.13;;;;;;;;;;5096947;28;20078;-75
2021/10/30 12:29:11;;;;;;;19.67;12.98;;;;;;;;;;5096126;28;20413;-74
2021/10/30 12:31:38;;;;;;;17.50;11.23;;;;;;;;;;5096824;28;20044;-74
2021/10/30 12:34:12;;;;;;;19.65;12.68;;;;;;;;;;5096379;28;20097;-74
2021/10/30 12:36:41;;;;;;;21.55;12.23;;;;;;;;;;5097284;28;20490;-75
2021/10/30 12:39:18;;;;;;;19.23;13.07;;;;;;;;;;5094312;28;20048;-75
2021/10/30 12:41:45;;;;;;;16.88;11.65;;;;;;;;;;5097558;28;20044;-75
2021/10/30 12:44:11;;;;;;;16.98;11.68;;;;;;;;;;5094664;28;20639;-75
2021/10/30 12:46:52;;;;;;;17.83;12.52;;;;;;;;;;5094832;28;20445;-74
2021/10/30 12:49:25;;;;;;;16.73;11.93;;;;;;;;;;5092791;28;20082;-75
2021/10/30 12:51:58;;;;;;;17.48;11.70;;;;;;;;;;5092976;28;20039;-74
2021/10/30 12:54:25;;;;;;;18.38;12.23;;;;;;;;;;5088535;28;20452;-74
2021/10/30 12:56:52;;;;;;;17.17;11.20;;;;;;;;;;5088395;28;20049;-74
2021/10/30 12:59:23;;;;;;;16.50;11.30;;;;;;;;;;5089955;28;20044;-75
2021/10/30 13:01:52;;;;;;;16.92;11.43;;;;;;;;;;5091409;28;20043;-75
2021/10/30 13:04:27;;;;;;;17.73;11.40;;;;;;;;;;5095057;28;20040;-74
2021/10/30 13:07:01;;;;;;;18.65;11.60;;;;;;;;;;5092635;28;20055;-74
2021/10/30 13:09:28;;;;;;;16.77;11.80;;;;;;;;;;5094854;28;20078;-74
2021/10/30 13:11:55;;;;;;;20.35;11.15;;;;;;;;;;5093358;28;20051;-74
2021/10/30 13:14:22;;;;;;;16.70;11.07;;;;;;;;;;5084294;28;20060;-74
2021/10/30 13:16:48;;;;;;;19.52;11.55;;;;;;;;;;5091981;28;20052;-72
2021/10/30 13:19:15;;;;;;;16.27;12.02;;;;;;;;;;5095003;28;20055;-74
2021/10/30 13:21:42;;;;;;;19.50;12.40;;;;;;;;;;5087288;28;20044;-73
2021/10/30 13:24:12;;;;;;;18.83;11.73;;;;;;;;;;5090240;28;20521;-73
2021/10/30 13:26:39;;;;;;;19.70;12.85;;;;;;;;;;5095143;28;20037;-73
2021/10/30 13:29:06;;;;;;;18.88;12.57;;;;;;;;;;5093892;28;20044;-74
2021/10/30 13:31:34;;;;;;;17.38;12.13;;;;;;;;;;5088120;28;20059;-73
2021/10/30 13:34:01;;;;;;;17.88;11.43;;;;;;;;;;5087838;28;20044;-73
2021/10/30 13:36:28;;;;;;;17.98;12.50;;;;;;;;;;5093694;28;20040;-73
2021/10/30 13:38:55;;;;;;;18.30;11.10;;;;;;;;;;5094925;28;20051;-73
2021/10/30 13:41:25;;;;;;;19.45;12.93;;;;;;;;;;5095180;28;20059;-72
2021/10/30 13:43:52;;;;;;;24.23;15.05;;;;;;;;;;5093727;28;20059;-73
2021/10/30 13:46:20;;;;;;;23.77;14.15;;;;;;;;;;5087077;28;20189;-73
2021/10/30 13:48:46;;;;;;;25.42;14.93;;;;;;;;;;5086670;28;20048;-72
2021/10/30 13:51:13;;;;;;;19.50;13.18;;;;;;;;;;5087126;28;20048;-72
2021/10/30 13:53:39;;;;;;;29.17;14.23;;;;;;;;;;5087321;28;20063;-73
2021/10/30 13:56:06;;;;;;;91.50;47.70;;;;;;;;;;5088281;28;20048;-73
2021/10/30 13:58:34;;;;;;;31.85;20.70;;;;;;;;;;5095422;28;20056;-72
2021/10/30 14:01:00;;;;;;;25.95;14.75;;;;;;;;;;5093660;28;20460;-73
2021/10/30 14:03:27;;;;;;;29.48;18.73;;;;;;;;;;5087607;28;20037;-72
2021/10/30 14:05:54;;;;;;;23.02;15.00;;;;;;;;;;5093140;28;20040;-73
2021/10/30 14:08:20;;;;;;;21.27;14.45;;;;;;;;;;5092255;28;20127;-72
2021/10/30 14:10:47;;;;;;;20.13;14.50;;;;;;;;;;5084587;28;20047;-72
2021/10/30 14:13:13;;;;;;;19.30;12.02;;;;;;;;;;5089233;28;20421;-72
2021/10/30 14:15:41;;;;;;;25.80;14.82;;;;;;;;;;5080036;28;21040;-72
2021/10/30 14:18:07;;;;;;;15.35;11.75;;;;;;;;;;5079532;28;20059;-73
2021/10/30 14:20:34;;;;;;;21.02;14.18;;;;;;;;;;5084405;28;20722;-73
2021/10/30 14:23:00;;;;;;;18.65;12.70;;;;;;;;;;5086688;28;20598;-73
2021/10/30 14:25:27;;;;;;;18.48;11.25;;;;;;;;;;5077301;28;20063;-74
2021/10/30 14:27:53;;;;;;;15.82;11.02;;;;;;;;;;5079978;28;20084;-73
2021/10/30 14:30:20;;;;;;;14.90;10.45;;;;;;;;;;5084490;28;20055;-73
2021/10/30 14:32:47;;;;;;;17.88;10.40;;;;;;;;;;5089493;28;20056;-74
2021/10/30 14:35:14;;;;;;;20.98;12.85;;;;;;;;;;5087475;28;20490;-75